sensor_id;sensor_type;location;lat;lon;timestamp;temperature;humidity
65378;SHT31;51982;51.042;13.806;2023-04-25T00:02:01;14.30;67.84
65378;SHT31;51982;51.042;13.806;2023-04-25T00:04:27;14.26;67.99
65378;SHT31;51982;51.042;13.806;2023-04-25T00:06:55;14.26;68.06
65378;SHT31;51982;51.042;13.806;2023-04-25T00:09:21;14.25;68.23
65378;SHT31;51982;51.042;13.806;2023-04-25T00:11:46;14.28;68.39
65378;SHT31;51982;51.042;13.806;2023-04-25T00:14:11;14.26;68.29
65378;SHT31;51982;51.042;13.806;2023-04-25T00:16:36;14.22;68.37
65378;SHT31;51982;51.042;13.806;2023-04-25T00:19:02;14.23;68.40
65378;SHT31;51982;51.042;13.806;2023-04-25T00:21:28;14.22;68.43
65378;SHT31;51982;51.042;13.806;2023-04-25T00:23:54;14.19;68.61
65378;SHT31;51982;51.042;13.806;2023-04-25T00:26:19;14.12;68.90
65378;SHT31;51982;51.042;13.806;2023-04-25T00:28:46;14.02;69.31
65378;SHT31;51982;51.042;13.806;2023-04-25T00:31:11;14.01;69.19
65378;SHT31;51982;51.042;13.806;2023-04-25T00:33:37;14.02;69.27
65378;SHT31;51982;51.042;13.806;2023-04-25T00:36:02;13.99;69.22
65378;SHT31;51982;51.042;13.806;2023-04-25T00:38:28;14.06;69.21
65378;SHT31;51982;51.042;13.806;2023-04-25T00:40:53;14.05;69.24
65378;SHT31;51982;51.042;13.806;2023-04-25T00:43:20;14.04;69.23
65378;SHT31;51982;51.042;13.806;2023-04-25T00:45:47;14.04;69.28
65378;SHT31;51982;51.042;13.806;2023-04-25T00:48:14;13.97;69.47
65378;SHT31;51982;51.042;13.806;2023-04-25T00:50:39;13.98;69.63
65378;SHT31;51982;51.042;13.806;2023-04-25T00:53:05;13.94;69.58
65378;SHT31;51982;51.042;13.806;2023-04-25T00:55:31;13.95;69.46
65378;SHT31;51982;51.042;13.806;2023-04-25T00:57:57;13.94;69.50
65378;SHT31;51982;51.042;13.806;2023-04-25T01:00:23;13.89;69.50
65378;SHT31;51982;51.042;13.806;2023-04-25T01:02:48;13.82;69.54
65378;SHT31;51982;51.042;13.806;2023-04-25T01:05:14;13.79;69.66
65378;SHT31;51982;51.042;13.806;2023-04-25T01:07:40;13.79;69.71
65378;SHT31;51982;51.042;13.806;2023-04-25T01:10:06;13.69;69.76
65378;SHT31;51982;51.042;13.806;2023-04-25T01:12:31;13.64;69.76
65378;SHT31;51982;51.042;13.806;2023-04-25T01:14:57;13.67;69.86
65378;SHT31;51982;51.042;13.806;2023-04-25T01:17:22;13.61;69.93
65378;SHT31;51982;51.042;13.806;2023-04-25T01:19:49;13.57;69.81
65378;SHT31;51982;51.042;13.806;2023-04-25T01:22:14;13.54;69.93
65378;SHT31;51982;51.042;13.806;2023-04-25T01:24:41;13.53;69.77
65378;SHT31;51982;51.042;13.806;2023-04-25T01:27:06;13.53;69.75
65378;SHT31;51982;51.042;13.806;2023-04-25T01:29:32;13.51;69.88
65378;SHT31;51982;51.042;13.806;2023-04-25T01:31:58;13.46;69.83
65378;SHT31;51982;51.042;13.806;2023-04-25T01:34:24;13.46;69.92
65378;SHT31;51982;51.042;13.806;2023-04-25T01:36:50;13.38;70.01
65378;SHT31;51982;51.042;13.806;2023-04-25T01:39:16;13.23;70.08
65378;SHT31;51982;51.042;13.806;2023-04-25T01:41:42;13.18;70.14
65378;SHT31;51982;51.042;13.806;2023-04-25T01:44:07;13.20;70.10
65378;SHT31;51982;51.042;13.806;2023-04-25T01:46:33;13.13;70.01
65378;SHT31;51982;51.042;13.806;2023-04-25T01:48:59;13.13;70.03
65378;SHT31;51982;51.042;13.806;2023-04-25T01:51:24;13.10;69.90
65378;SHT31;51982;51.042;13.806;2023-04-25T01:53:49;13.11;69.90
65378;SHT31;51982;51.042;13.806;2023-04-25T01:56:15;13.13;69.89
65378;SHT31;51982;51.042;13.806;2023-04-25T01:58:40;13.10;69.74
65378;SHT31;51982;51.042;13.806;2023-04-25T02:01:05;13.10;69.82
65378;SHT31;51982;51.042;13.806;2023-04-25T02:03:31;13.08;69.85
65378;SHT31;51982;51.042;13.806;2023-04-25T02:05:56;13.07;69.75
65378;SHT31;51982;51.042;13.806;2023-04-25T02:08:22;13.03;69.72
65378;SHT31;51982;51.042;13.806;2023-04-25T02:10:47;13.03;69.69
65378;SHT31;51982;51.042;13.806;2023-04-25T02:13:12;12.95;69.59
65378;SHT31;51982;51.042;13.806;2023-04-25T02:15:37;12.87;69.67
65378;SHT31;51982;51.042;13.806;2023-04-25T02:18:03;12.89;69.71
65378;SHT31;51982;51.042;13.806;2023-04-25T02:20:29;12.90;69.52
65378;SHT31;51982;51.042;13.806;2023-04-25T02:22:55;12.83;69.52
65378;SHT31;51982;51.042;13.806;2023-04-25T02:25:21;12.82;69.49
65378;SHT31;51982;51.042;13.806;2023-04-25T02:27:47;12.85;69.50
65378;SHT31;51982;51.042;13.806;2023-04-25T02:30:12;12.83;69.45
65378;SHT31;51982;51.042;13.806;2023-04-25T02:32:39;12.82;69.53
65378;SHT31;51982;51.042;13.806;2023-04-25T02:35:04;12.80;69.60
65378;SHT31;51982;51.042;13.806;2023-04-25T02:37:31;12.73;69.76
65378;SHT31;51982;51.042;13.806;2023-04-25T02:39:56;12.73;69.77
65378;SHT31;51982;51.042;13.806;2023-04-25T02:42:22;12.69;69.76
65378;SHT31;51982;51.042;13.806;2023-04-25T02:44:47;12.69;69.79
65378;SHT31;51982;51.042;13.806;2023-04-25T02:47:12;12.70;69.72
65378;SHT31;51982;51.042;13.806;2023-04-25T02:49:37;12.69;69.73
65378;SHT31;51982;51.042;13.806;2023-04-25T02:52:03;12.69;69.74
65378;SHT31;51982;51.042;13.806;2023-04-25T02:54:28;12.65;69.88
65378;SHT31;51982;51.042;13.806;2023-04-25T02:56:53;12.60;69.85
65378;SHT31;51982;51.042;13.806;2023-04-25T02:59:18;12.57;69.85
65378;SHT31;51982;51.042;13.806;2023-04-25T03:01:44;12.57;69.98
65378;SHT31;51982;51.042;13.806;2023-04-25T03:04:10;12.56;70.17
65378;SHT31;51982;51.042;13.806;2023-04-25T03:06:35;12.52;70.10
65378;SHT31;51982;51.042;13.806;2023-04-25T03:09:00;12.48;70.20
65378;SHT31;51982;51.042;13.806;2023-04-25T03:11:25;12.44;70.27
65378;SHT31;51982;51.042;13.806;2023-04-25T03:13:51;12.39;70.35
65378;SHT31;51982;51.042;13.806;2023-04-25T03:16:16;12.39;70.50
65378;SHT31;51982;51.042;13.806;2023-04-25T03:18:41;12.35;70.54
65378;SHT31;51982;51.042;13.806;2023-04-25T03:21:06;12.34;70.75
65378;SHT31;51982;51.042;13.806;2023-04-25T03:23:32;12.29;70.67
65378;SHT31;51982;51.042;13.806;2023-04-25T03:25:57;12.29;70.64
65378;SHT31;51982;51.042;13.806;2023-04-25T03:28:22;12.26;70.63
65378;SHT31;51982;51.042;13.806;2023-04-25T03:30:47;12.25;70.80
65378;SHT31;51982;51.042;13.806;2023-04-25T03:33:13;12.24;70.92
65378;SHT31;51982;51.042;13.806;2023-04-25T03:35:38;12.21;71.02
65378;SHT31;51982;51.042;13.806;2023-04-25T03:38:03;12.17;71.17
65378;SHT31;51982;51.042;13.806;2023-04-25T03:40:28;12.17;71.29
65378;SHT31;51982;51.042;13.806;2023-04-25T03:42:53;12.17;71.47
65378;SHT31;51982;51.042;13.806;2023-04-25T03:45:19;12.15;71.41
65378;SHT31;51982;51.042;13.806;2023-04-25T03:47:44;12.08;71.60
65378;SHT31;51982;51.042;13.806;2023-04-25T03:50:09;12.08;71.71
65378;SHT31;51982;51.042;13.806;2023-04-25T03:52:35;12.05;71.77
65378;SHT31;51982;51.042;13.806;2023-04-25T03:55:00;12.02;71.77
65378;SHT31;51982;51.042;13.806;2023-04-25T03:57:25;11.97;71.87
65378;SHT31;51982;51.042;13.806;2023-04-25T03:59:51;11.91;71.97
65378;SHT31;51982;51.042;13.806;2023-04-25T04:02:17;11.87;72.16
65378;SHT31;51982;51.042;13.806;2023-04-25T04:04:42;11.84;72.41
65378;SHT31;51982;51.042;13.806;2023-04-25T04:07:09;11.81;72.35
65378;SHT31;51982;51.042;13.806;2023-04-25T04:09:35;11.83;72.43
65378;SHT31;51982;51.042;13.806;2023-04-25T04:12:00;11.83;72.44
65378;SHT31;51982;51.042;13.806;2023-04-25T04:14:26;11.81;72.60
65378;SHT31;51982;51.042;13.806;2023-04-25T04:16:51;11.78;72.60
65378;SHT31;51982;51.042;13.806;2023-04-25T04:19:17;11.74;72.66
65378;SHT31;51982;51.042;13.806;2023-04-25T04:21:42;11.73;72.55
65378;SHT31;51982;51.042;13.806;2023-04-25T04:24:08;11.64;72.93
65378;SHT31;51982;51.042;13.806;2023-04-25T04:26:33;11.60;73.15
65378;SHT31;51982;51.042;13.806;2023-04-25T04:28:59;11.66;73.14
65378;SHT31;51982;51.042;13.806;2023-04-25T04:31:25;11.71;72.97
65378;SHT31;51982;51.042;13.806;2023-04-25T04:33:50;11.78;72.90
65378;SHT31;51982;51.042;13.806;2023-04-25T04:36:16;11.83;72.74
65378;SHT31;51982;51.042;13.806;2023-04-25T04:38:44;11.81;72.70
65378;SHT31;51982;51.042;13.806;2023-04-25T04:41:10;11.81;72.62
65378;SHT31;51982;51.042;13.806;2023-04-25T04:43:35;11.81;72.91
65378;SHT31;51982;51.042;13.806;2023-04-25T04:46:01;11.77;72.94
65378;SHT31;51982;51.042;13.806;2023-04-25T04:48:28;11.75;73.17
65378;SHT31;51982;51.042;13.806;2023-04-25T04:50:53;11.78;73.17
65378;SHT31;51982;51.042;13.806;2023-04-25T04:53:19;11.84;73.33
65378;SHT31;51982;51.042;13.806;2023-04-25T04:55:44;11.97;73.20
65378;SHT31;51982;51.042;13.806;2023-04-25T04:58:09;12.04;73.12
65378;SHT31;51982;51.042;13.806;2023-04-25T05:00:34;12.11;73.11
65378;SHT31;51982;51.042;13.806;2023-04-25T05:03:00;12.22;72.80
65378;SHT31;51982;51.042;13.806;2023-04-25T05:05:25;12.15;71.82
65378;SHT31;51982;51.042;13.806;2023-04-25T05:07:51;12.20;72.14
65378;SHT31;51982;51.042;13.806;2023-04-25T05:10:18;12.25;72.09
65378;SHT31;51982;51.042;13.806;2023-04-25T05:12:43;12.35;71.71
65378;SHT31;51982;51.042;13.806;2023-04-25T05:15:09;12.39;71.70
65378;SHT31;51982;51.042;13.806;2023-04-25T05:17:35;12.45;71.36
65378;SHT31;51982;51.042;13.806;2023-04-25T05:20:00;12.49;71.14
65378;SHT31;51982;51.042;13.806;2023-04-25T05:22:25;12.55;70.84
65378;SHT31;51982;51.042;13.806;2023-04-25T05:24:51;12.60;70.77
65378;SHT31;51982;51.042;13.806;2023-04-25T05:27:17;12.65;70.69
65378;SHT31;51982;51.042;13.806;2023-04-25T05:29:42;12.75;70.58
65378;SHT31;51982;51.042;13.806;2023-04-25T05:32:08;12.79;70.56
65378;SHT31;51982;51.042;13.806;2023-04-25T05:34:34;12.86;70.31
65378;SHT31;51982;51.042;13.806;2023-04-25T05:36:59;12.89;70.15
65378;SHT31;51982;51.042;13.806;2023-04-25T05:39:25;12.92;70.13
65378;SHT31;51982;51.042;13.806;2023-04-25T05:41:51;12.99;69.86
65378;SHT31;51982;51.042;13.806;2023-04-25T05:44:16;12.96;69.69
65378;SHT31;51982;51.042;13.806;2023-04-25T05:46:41;13.02;69.10
65378;SHT31;51982;51.042;13.806;2023-04-25T05:49:07;12.92;68.67
65378;SHT31;51982;51.042;13.806;2023-04-25T05:51:32;12.89;68.28
65378;SHT31;51982;51.042;13.806;2023-04-25T05:53:57;12.79;67.85
65378;SHT31;51982;51.042;13.806;2023-04-25T05:56:22;12.80;68.05
65378;SHT31;51982;51.042;13.806;2023-04-25T05:58:48;12.70;67.87
65378;SHT31;51982;51.042;13.806;2023-04-25T06:01:13;12.69;67.84
65378;SHT31;51982;51.042;13.806;2023-04-25T06:03:39;12.85;67.83
65378;SHT31;51982;51.042;13.806;2023-04-25T06:06:04;12.85;66.97
65378;SHT31;51982;51.042;13.806;2023-04-25T06:08:29;12.86;67.21
65378;SHT31;51982;51.042;13.806;2023-04-25T06:10:54;12.93;67.24
65378;SHT31;51982;51.042;13.806;2023-04-25T06:13:21;12.97;67.01
65378;SHT31;51982;51.042;13.806;2023-04-25T06:15:46;12.86;67.05
65378;SHT31;51982;51.042;13.806;2023-04-25T06:18:11;13.02;67.01
65378;SHT31;51982;51.042;13.806;2023-04-25T06:20:36;12.97;66.81
65378;SHT31;51982;51.042;13.806;2023-04-25T06:23:01;12.86;66.49
65378;SHT31;51982;51.042;13.806;2023-04-25T06:25:27;12.86;66.57
65378;SHT31;51982;51.042;13.806;2023-04-25T06:27:52;12.95;66.79
65378;SHT31;51982;51.042;13.806;2023-04-25T06:30:17;13.02;66.81
65378;SHT31;51982;51.042;13.806;2023-04-25T06:32:47;13.13;66.77
65378;SHT31;51982;51.042;13.806;2023-04-25T06:35:12;13.18;66.52
65378;SHT31;51982;51.042;13.806;2023-04-25T06:37:38;13.17;66.60
65378;SHT31;51982;51.042;13.806;2023-04-25T06:40:03;13.31;66.49
65378;SHT31;51982;51.042;13.806;2023-04-25T06:42:29;13.48;65.88
65378;SHT31;51982;51.042;13.806;2023-04-25T06:44:54;13.46;65.65
65378;SHT31;51982;51.042;13.806;2023-04-25T06:47:19;13.54;65.72
65378;SHT31;51982;51.042;13.806;2023-04-25T06:49:45;13.38;65.62
65378;SHT31;51982;51.042;13.806;2023-04-25T06:52:10;13.38;65.58
65378;SHT31;51982;51.042;13.806;2023-04-25T06:54:35;13.40;65.53
65378;SHT31;51982;51.042;13.806;2023-04-25T06:57:01;13.59;65.64
65378;SHT31;51982;51.042;13.806;2023-04-25T06:59:26;13.69;65.47
65378;SHT31;51982;51.042;13.806;2023-04-25T07:01:51;13.74;64.90
65378;SHT31;51982;51.042;13.806;2023-04-25T07:04:17;13.78;65.01
65378;SHT31;51982;51.042;13.806;2023-04-25T07:06:42;13.91;64.81
65378;SHT31;51982;51.042;13.806;2023-04-25T07:09:08;13.85;64.67
65378;SHT31;51982;51.042;13.806;2023-04-25T07:11:35;13.81;64.72
65378;SHT31;51982;51.042;13.806;2023-04-25T07:14:00;13.78;64.72
65378;SHT31;51982;51.042;13.806;2023-04-25T07:16:25;13.81;64.80
65378;SHT31;51982;51.042;13.806;2023-04-25T07:18:50;13.77;64.76
65378;SHT31;51982;51.042;13.806;2023-04-25T07:21:16;13.79;64.74
65378;SHT31;51982;51.042;13.806;2023-04-25T07:23:41;13.82;64.74
65378;SHT31;51982;51.042;13.806;2023-04-25T07:26:06;13.85;64.63
65378;SHT31;51982;51.042;13.806;2023-04-25T07:28:32;13.91;64.34
65378;SHT31;51982;51.042;13.806;2023-04-25T07:30:57;13.97;63.95
65378;SHT31;51982;51.042;13.806;2023-04-25T07:33:23;14.01;64.16
65378;SHT31;51982;51.042;13.806;2023-04-25T07:35:48;13.92;64.39
65378;SHT31;51982;51.042;13.806;2023-04-25T07:38:13;13.89;63.87
65378;SHT31;51982;51.042;13.806;2023-04-25T07:40:38;14.08;64.07
65378;SHT31;51982;51.042;13.806;2023-04-25T07:43:04;14.05;63.81
65378;SHT31;51982;51.042;13.806;2023-04-25T07:45:29;14.10;63.92
65378;SHT31;51982;51.042;13.806;2023-04-25T07:47:54;14.18;63.67
65378;SHT31;51982;51.042;13.806;2023-04-25T07:50:19;14.20;63.61
65378;SHT31;51982;51.042;13.806;2023-04-25T07:52:45;14.19;63.37
65378;SHT31;51982;51.042;13.806;2023-04-25T07:55:10;14.26;64.30
65378;SHT31;51982;51.042;13.806;2023-04-25T07:57:35;14.37;63.57
65378;SHT31;51982;51.042;13.806;2023-04-25T08:00:00;14.36;63.43
65378;SHT31;51982;51.042;13.806;2023-04-25T08:02:26;14.19;63.15
65378;SHT31;51982;51.042;13.806;2023-04-25T08:04:53;14.13;63.32
65378;SHT31;51982;51.042;13.806;2023-04-25T08:07:18;14.13;62.98
65378;SHT31;51982;51.042;13.806;2023-04-25T08:09:43;14.30;63.01
65378;SHT31;51982;51.042;13.806;2023-04-25T08:12:09;14.43;62.85
65378;SHT31;51982;51.042;13.806;2023-04-25T08:14:34;14.53;62.79
65378;SHT31;51982;51.042;13.806;2023-04-25T08:17:04;14.56;62.55
65378;SHT31;51982;51.042;13.806;2023-04-25T08:19:30;14.52;62.48
65378;SHT31;51982;51.042;13.806;2023-04-25T08:21:56;14.49;62.13
65378;SHT31;51982;51.042;13.806;2023-04-25T08:24:21;14.59;62.05
65378;SHT31;51982;51.042;13.806;2023-04-25T08:26:47;14.64;62.35
65378;SHT31;51982;51.042;13.806;2023-04-25T08:29:12;14.66;62.24
65378;SHT31;51982;51.042;13.806;2023-04-25T08:31:37;14.50;62.65
65378;SHT31;51982;51.042;13.806;2023-04-25T08:34:02;14.37;62.81
65378;SHT31;51982;51.042;13.806;2023-04-25T08:36:28;14.46;62.98
65378;SHT31;51982;51.042;13.806;2023-04-25T08:38:53;14.34;63.32
65378;SHT31;51982;51.042;13.806;2023-04-25T08:41:19;14.25;63.54
65378;SHT31;51982;51.042;13.806;2023-04-25T08:43:48;14.18;63.42
65378;SHT31;51982;51.042;13.806;2023-04-25T08:46:17;14.28;63.68
65378;SHT31;51982;51.042;13.806;2023-04-25T08:48:44;14.20;63.54
65378;SHT31;51982;51.042;13.806;2023-04-25T08:51:10;14.30;63.46
65378;SHT31;51982;51.042;13.806;2023-04-25T08:53:39;14.39;63.54
65378;SHT31;51982;51.042;13.806;2023-04-25T08:56:07;14.37;63.77
65378;SHT31;51982;51.042;13.806;2023-04-25T08:58:34;14.40;63.64
65378;SHT31;51982;51.042;13.806;2023-04-25T09:01:00;14.43;63.46
65378;SHT31;51982;51.042;13.806;2023-04-25T09:03:25;14.53;64.00
65378;SHT31;51982;51.042;13.806;2023-04-25T09:05:51;14.44;63.58
65378;SHT31;51982;51.042;13.806;2023-04-25T09:08:16;14.47;63.71
65378;SHT31;51982;51.042;13.806;2023-04-25T09:10:41;14.43;63.56
65378;SHT31;51982;51.042;13.806;2023-04-25T09:13:12;14.49;63.72
65378;SHT31;51982;51.042;13.806;2023-04-25T09:15:49;14.59;63.85
65378;SHT31;51982;51.042;13.806;2023-04-25T09:18:28;14.47;63.32
65378;SHT31;51982;51.042;13.806;2023-04-25T09:20:55;14.52;63.58
65378;SHT31;51982;51.042;13.806;2023-04-25T09:23:23;14.60;63.47
65378;SHT31;51982;51.042;13.806;2023-04-25T09:25:50;14.81;63.24
65378;SHT31;51982;51.042;13.806;2023-04-25T09:28:16;14.57;63.34
65378;SHT31;51982;51.042;13.806;2023-04-25T09:30:47;14.61;63.16
65378;SHT31;51982;51.042;13.806;2023-04-25T09:33:12;14.67;63.33
65378;SHT31;51982;51.042;13.806;2023-04-25T09:35:43;14.50;63.71
65378;SHT31;51982;51.042;13.806;2023-04-25T09:38:10;14.59;63.90
65378;SHT31;51982;51.042;13.806;2023-04-25T09:40:39;14.49;63.63
65378;SHT31;51982;51.042;13.806;2023-04-25T09:43:29;14.53;63.39
65378;SHT31;51982;51.042;13.806;2023-04-25T09:45:54;14.60;62.84
65378;SHT31;51982;51.042;13.806;2023-04-25T09:48:23;14.44;63.31
65378;SHT31;51982;51.042;13.806;2023-04-25T09:51:08;14.34;63.99
65378;SHT31;51982;51.042;13.806;2023-04-25T09:53:35;14.46;63.86
65378;SHT31;51982;51.042;13.806;2023-04-25T09:56:04;14.37;64.22
65378;SHT31;51982;51.042;13.806;2023-04-25T09:58:30;14.18;64.51
65378;SHT31;51982;51.042;13.806;2023-04-25T10:00:59;14.16;64.26
65378;SHT31;51982;51.042;13.806;2023-04-25T10:03:25;14.22;64.23
65378;SHT31;51982;51.042;13.806;2023-04-25T10:05:52;14.05;64.37
65378;SHT31;51982;51.042;13.806;2023-04-25T10:08:18;14.10;64.48
65378;SHT31;51982;51.042;13.806;2023-04-25T10:10:45;14.23;64.61
65378;SHT31;51982;51.042;13.806;2023-04-25T10:13:11;14.30;64.54
65378;SHT31;51982;51.042;13.806;2023-04-25T10:15:39;14.32;64.91
65378;SHT31;51982;51.042;13.806;2023-04-25T10:18:06;14.43;64.45
65378;SHT31;51982;51.042;13.806;2023-04-25T10:20:32;14.47;64.36
65378;SHT31;51982;51.042;13.806;2023-04-25T10:23:04;14.32;63.96
65378;SHT31;51982;51.042;13.806;2023-04-25T10:25:31;14.47;64.37
65378;SHT31;51982;51.042;13.806;2023-04-25T10:27:59;14.67;64.29
65378;SHT31;51982;51.042;13.806;2023-04-25T10:30:24;14.79;64.19
65378;SHT31;51982;51.042;13.806;2023-04-25T10:32:49;14.67;64.15
65378;SHT31;51982;51.042;13.806;2023-04-25T10:35:24;14.46;64.12
65378;SHT31;51982;51.042;13.806;2023-04-25T10:40:25;14.43;64.87
65378;SHT31;51982;51.042;13.806;2023-04-25T10:42:52;14.55;64.85
65378;SHT31;51982;51.042;13.806;2023-04-25T10:45:18;14.57;64.82
65378;SHT31;51982;51.042;13.806;2023-04-25T10:47:44;14.56;64.48
65378;SHT31;51982;51.042;13.806;2023-04-25T10:50:14;14.67;64.29
65378;SHT31;51982;51.042;13.806;2023-04-25T10:52:41;14.70;64.26
65378;SHT31;51982;51.042;13.806;2023-04-25T10:55:07;14.71;64.54
65378;SHT31;51982;51.042;13.806;2023-04-25T11:00:16;14.59;64.36
65378;SHT31;51982;51.042;13.806;2023-04-25T11:05:08;14.44;64.95
65378;SHT31;51982;51.042;13.806;2023-04-25T11:07:50;14.13;65.08
65378;SHT31;51982;51.042;13.806;2023-04-25T11:10:17;14.09;65.57
65378;SHT31;51982;51.042;13.806;2023-04-25T11:12:43;14.04;65.98
65378;SHT31;51982;51.042;13.806;2023-04-25T11:15:08;13.82;67.07
65378;SHT31;51982;51.042;13.806;2023-04-25T11:17:34;13.94;66.79
65378;SHT31;51982;51.042;13.806;2023-04-25T11:19:59;13.99;66.65
65378;SHT31;51982;51.042;13.806;2023-04-25T11:22:27;14.04;66.45
65378;SHT31;51982;51.042;13.806;2023-04-25T11:24:52;13.99;66.76
65378;SHT31;51982;51.042;13.806;2023-04-25T11:27:18;13.91;67.13
65378;SHT31;51982;51.042;13.806;2023-04-25T11:29:43;14.09;66.90
65378;SHT31;51982;51.042;13.806;2023-04-25T11:32:08;13.94;67.71
65378;SHT31;51982;51.042;13.806;2023-04-25T11:34:34;13.89;67.92
65378;SHT31;51982;51.042;13.806;2023-04-25T11:37:00;13.86;68.26
65378;SHT31;51982;51.042;13.806;2023-04-25T11:39:26;14.01;68.45
65378;SHT31;51982;51.042;13.806;2023-04-25T11:41:52;14.09;67.88
65378;SHT31;51982;51.042;13.806;2023-04-25T11:44:19;14.04;67.09
65378;SHT31;51982;51.042;13.806;2023-04-25T11:46:45;14.12;66.91
65378;SHT31;51982;51.042;13.806;2023-04-25T11:49:10;14.29;67.06
65378;SHT31;51982;51.042;13.806;2023-04-25T11:51:43;14.33;66.67
65378;SHT31;51982;51.042;13.806;2023-04-25T11:54:09;14.55;66.41
65378;SHT31;51982;51.042;13.806;2023-04-25T11:56:35;14.47;65.36
65378;SHT31;51982;51.042;13.806;2023-04-25T11:59:02;14.39;64.70
65378;SHT31;51982;51.042;13.806;2023-04-25T12:01:33;14.40;64.08
65378;SHT31;51982;51.042;13.806;2023-04-25T12:04:16;14.20;63.48
65378;SHT31;51982;51.042;13.806;2023-04-25T12:06:43;14.29;63.68
65378;SHT31;51982;51.042;13.806;2023-04-25T12:09:10;14.30;63.77
65378;SHT31;51982;51.042;13.806;2023-04-25T12:11:53;14.47;63.56
65378;SHT31;51982;51.042;13.806;2023-04-25T12:16:49;14.37;63.68
65378;SHT31;51982;51.042;13.806;2023-04-25T12:19:16;14.49;63.82
65378;SHT31;51982;51.042;13.806;2023-04-25T12:21:41;14.44;64.00
65378;SHT31;51982;51.042;13.806;2023-04-25T12:24:12;14.29;64.08
65378;SHT31;51982;51.042;13.806;2023-04-25T12:26:58;14.15;64.29
65378;SHT31;51982;51.042;13.806;2023-04-25T12:29:27;14.12;64.64
65378;SHT31;51982;51.042;13.806;2023-04-25T12:31:53;14.22;64.54
65378;SHT31;51982;51.042;13.806;2023-04-25T12:34:20;14.23;64.11
65378;SHT31;51982;51.042;13.806;2023-04-25T12:36:46;14.29;63.78
65378;SHT31;51982;51.042;13.806;2023-04-25T12:39:18;14.20;62.88
65378;SHT31;51982;51.042;13.806;2023-04-25T12:41:50;14.39;63.33
65378;SHT31;51982;51.042;13.806;2023-04-25T12:44:17;14.43;62.64
65378;SHT31;51982;51.042;13.806;2023-04-25T12:46:42;14.60;62.77
65378;SHT31;51982;51.042;13.806;2023-04-25T12:49:08;14.71;62.38
65378;SHT31;51982;51.042;13.806;2023-04-25T12:51:36;14.93;62.00
65378;SHT31;51982;51.042;13.806;2023-04-25T12:54:02;14.81;61.42
65378;SHT31;51982;51.042;13.806;2023-04-25T12:56:28;14.91;61.22
65378;SHT31;51982;51.042;13.806;2023-04-25T12:58:54;14.77;60.20
65378;SHT31;51982;51.042;13.806;2023-04-25T13:01:20;14.70;60.58
65378;SHT31;51982;51.042;13.806;2023-04-25T13:03:46;14.81;60.87
65378;SHT31;51982;51.042;13.806;2023-04-25T13:06:12;14.74;60.92
65378;SHT31;51982;51.042;13.806;2023-04-25T13:08:38;14.81;60.94
65378;SHT31;51982;51.042;13.806;2023-04-25T13:11:04;14.59;61.04
65378;SHT31;51982;51.042;13.806;2023-04-25T13:13:29;14.64;61.01
65378;SHT31;51982;51.042;13.806;2023-04-25T13:15:56;14.49;61.22
65378;SHT31;51982;51.042;13.806;2023-04-25T13:18:22;14.47;61.43
65378;SHT31;51982;51.042;13.806;2023-04-25T13:20:51;14.55;61.39
65378;SHT31;51982;51.042;13.806;2023-04-25T13:23:16;14.19;61.73
65378;SHT31;51982;51.042;13.806;2023-04-25T13:25:42;14.13;62.01
65378;SHT31;51982;51.042;13.806;2023-04-25T13:28:07;13.79;62.88
65378;SHT31;51982;51.042;13.806;2023-04-25T13:30:32;13.71;62.60
65378;SHT31;51982;51.042;13.806;2023-04-25T13:32:57;13.77;62.50
65378;SHT31;51982;51.042;13.806;2023-04-25T13:35:28;13.75;62.55
65378;SHT31;51982;51.042;13.806;2023-04-25T13:37:53;13.68;62.94
65378;SHT31;51982;51.042;13.806;2023-04-25T13:40:18;13.59;63.54
65378;SHT31;51982;51.042;13.806;2023-04-25T13:42:43;13.55;64.03
65378;SHT31;51982;51.042;13.806;2023-04-25T13:45:10;13.67;63.91
65378;SHT31;51982;51.042;13.806;2023-04-25T13:47:36;13.77;63.21
65378;SHT31;51982;51.042;13.806;2023-04-25T13:50:01;13.65;62.51
65378;SHT31;51982;51.042;13.806;2023-04-25T13:52:28;13.65;62.35
65378;SHT31;51982;51.042;13.806;2023-04-25T13:54:53;13.59;62.09
65378;SHT31;51982;51.042;13.806;2023-04-25T13:57:19;13.54;62.19
65378;SHT31;51982;51.042;13.806;2023-04-25T13:59:45;13.58;62.14
65378;SHT31;51982;51.042;13.806;2023-04-25T14:02:11;13.50;62.09
65378;SHT31;51982;51.042;13.806;2023-04-25T14:04:36;13.40;61.95
65378;SHT31;51982;51.042;13.806;2023-04-25T14:07:02;13.50;61.92
65378;SHT31;51982;51.042;13.806;2023-04-25T14:09:28;13.59;62.07
65378;SHT31;51982;51.042;13.806;2023-04-25T14:11:54;13.55;61.79
65378;SHT31;51982;51.042;13.806;2023-04-25T14:14:20;13.34;61.86
65378;SHT31;51982;51.042;13.806;2023-04-25T14:16:47;13.38;61.70
65378;SHT31;51982;51.042;13.806;2023-04-25T14:19:17;13.50;61.90
65378;SHT31;51982;51.042;13.806;2023-04-25T14:21:42;13.55;61.37
65378;SHT31;51982;51.042;13.806;2023-04-25T14:24:08;13.61;61.47
65378;SHT31;51982;51.042;13.806;2023-04-25T14:26:34;13.74;61.61
65378;SHT31;51982;51.042;13.806;2023-04-25T14:29:00;13.86;61.31
65378;SHT31;51982;51.042;13.806;2023-04-25T14:31:26;14.05;61.47
65378;SHT31;51982;51.042;13.806;2023-04-25T14:33:51;14.08;61.26
65378;SHT31;51982;51.042;13.806;2023-04-25T14:36:16;14.08;61.05
65378;SHT31;51982;51.042;13.806;2023-04-25T14:38:41;14.05;61.05
65378;SHT31;51982;51.042;13.806;2023-04-25T14:41:07;14.02;61.03
65378;SHT31;51982;51.042;13.806;2023-04-25T14:43:32;14.16;61.33
65378;SHT31;51982;51.042;13.806;2023-04-25T14:45:57;14.09;61.09
65378;SHT31;51982;51.042;13.806;2023-04-25T14:48:22;14.18;61.01
65378;SHT31;51982;51.042;13.806;2023-04-25T14:50:48;14.18;61.05
65378;SHT31;51982;51.042;13.806;2023-04-25T14:53:14;14.18;60.76
65378;SHT31;51982;51.042;13.806;2023-04-25T14:55:40;14.19;60.56
65378;SHT31;51982;51.042;13.806;2023-04-25T14:58:05;14.16;60.61
65378;SHT31;51982;51.042;13.806;2023-04-25T15:00:31;14.02;60.29
65378;SHT31;51982;51.042;13.806;2023-04-25T15:02:57;14.02;60.55
65378;SHT31;51982;51.042;13.806;2023-04-25T15:05:23;14.02;60.76
65378;SHT31;51982;51.042;13.806;2023-04-25T15:07:48;14.10;60.78
65378;SHT31;51982;51.042;13.806;2023-04-25T15:10:13;14.18;60.74
65378;SHT31;51982;51.042;13.806;2023-04-25T15:12:41;14.04;60.52
65378;SHT31;51982;51.042;13.806;2023-04-25T15:15:07;13.68;59.74
65378;SHT31;51982;51.042;13.806;2023-04-25T15:17:43;13.77;59.66
65378;SHT31;51982;51.042;13.806;2023-04-25T15:20:10;13.61;58.91